• Join FlightAware (Why Join?)
  • Login
  • US Flag 
06:36AM EDT


 

Airport Tracker/Info


-or-


 

Live Flight TrackerFlight Track Log ✈ AWE3202 ✈ 22-Apr-2013 ✈ KDCA - KMHT

Flight Track Log - Related Links

Times and Time Zones

All times are in EDT time to prevent confusion due to time zone crossing. See the AWE3202 flight status page for this flight to view local times or setup timezone preferences in your user account.

Time Position Orientation Groundspeed Altitude Reporting Facility
EDT Latitude Longitude Course Direction KTS MPH feet Rate Location/Type
10:20PM 38.9122 -77.1017 47° Northeast 169 194 3,200  Level Washington Center
10:21PM 38.9700 -77.1456 329° Northwest 211 243 5,700 2,400 Climbing Washington Center
10:22PM 39.0375 -77.0828 36° Northeast 211 243 8,100 1,980 Climbing Washington Center
10:23PM 39.0575 -76.9789 76° East 226 260 9,700 1,440 Climbing Washington Center
10:24PM 39.1537 -76.1796 83° East  Level FlightAware Approximate
10:24PM 39.0692 -76.8669 82° East 260 299 11,000  Level Washington Center
10:25PM 39.1683 -76.0202 81° East  Level FlightAware Approximate
10:25PM 39.0828 -76.7575 81° East 292 336 12,200  Level Washington Center
10:26PM 39.1862 -75.8626 47° Northeast  Level FlightAware Approximate
10:26PM 39.0964 -76.6453 81° East 311 358 13,300  Level Washington Center
10:27PM 39.1119 -76.5253 80° East 322 371 14,500 1,200 Climbing Washington Center
10:28PM 39.1275 -76.3969 81° East 343 395 15,700 1,200 Climbing Washington Center
10:29PM 39.1428 -76.2661 81° East 354 407 16,900 1,200 Climbing Washington Center
10:30PM 39.1622 -76.1322 79° East 372 428 18,200 900 Climbing Washington Center
10:31PM 39.1794 -75.9958 81° East 377 434 18,800 900 Climbing Washington Center
10:32PM 39.2111 -75.8622 73° East 382 440 20,000 1,200 Climbing Washington Center
10:33PM 39.2864 -75.7606 46° Northeast 373 429 21,200 1,200 Climbing Washington Center
10:34PM 39.3678 -75.6561 45° Northeast 379 436 22,500 1,200 Climbing Washington Center
10:35PM 39.4511 -75.5486 45° Northeast 398 458 23,600 1,260 Climbing Washington Center
10:36PM 39.5406 -75.4300 46° Northeast 429 494 25,100 1,740 Climbing Washington Center
10:37PM 39.6300 -75.3142 45° Northeast 439 505 27,100 1,740 Climbing Washington Center
10:38PM 39.7169 -75.1922 47° Northeast 444 511 28,600 1,380 Climbing Washington Center
10:39PM 39.7533 -75.1372 49° Northeast 452 520 29,000 300 Climbing New York Center
10:40PM 39.8436 -75.0103 47° Northeast 480 552 29,000  Level New York Center
10:41PM 39.9392 -74.8997 42° Northeast 467 537 29,000  Level New York Center
10:42PM 40.0403 -74.8053 36° Northeast 457 526 29,000  Level New York Center
10:43PM 40.1331 -74.7131 37° Northeast 457 526 29,000  Level New York Center
10:44PM 40.2342 -74.6181 36° Northeast 462 532 29,000  Level New York Center
10:45PM 40.3419 -74.5125 37° Northeast 462 532 29,000  Level New York Center
10:46PM 40.4450 -74.4144 36° Northeast 462 532 29,000  Level New York Center
10:48PM 40.6272 -74.2283 38° Northeast 468 539 29,000  Level Boston Center
10:49PM 40.7436 -74.1219 35° Northeast 468 539 29,000 -540 Level Boston Center
10:50PM 40.8431 -74.0203 38° Northeast 461 531 28,000 -1,020 Descending Boston Center
10:51PM 40.9442 -73.9239 36° Northeast 449 517 27,000 -540 Descending Boston Center
10:52PM 41.0372 -73.8297 37° Northeast 438 504 27,000  Level Boston Center
10:53PM 41.1342 -73.7325 37° Northeast 438 504 27,000  Level Boston Center
10:54PM 41.2311 -73.6353 37° Northeast 438 504 27,000 -60 Level Boston Center
10:55PM 41.3419 -73.5931 16° North 417 480 26,900 -960 Descending Boston Center
10:56PM 41.4481 -73.6089 354° North 389 448 25,100 -1,800 Descending Boston Center
10:57PM 41.5500 -73.6244 353° North 381 438 23,400 -1,080 Descending Boston Center
10:58PM 41.6519 -73.6403 353° North 371 427 23,000 -240 Descending Boston Center
10:59PM 41.7561 -73.6561 354° North 371 427 23,000  Level Boston Center
11:00PM 41.8561 -73.6719 353° North 371 427 23,000  Level Boston Center
11:01PM 41.9600 -73.6853 355° North 371 427 23,000  Level Boston Center
11:02PM 42.0642 -73.7014 353° North 371 427 23,000  Level Boston Center
11:03PM 42.1619 -73.7172 353° North 362 417 23,000  Level Boston Center
11:04PM 42.2639 -73.7333 353° North 362 417 23,000  Level Boston Center
11:05PM 42.3658 -73.7494 353° North 362 417 23,000  Level Boston Center
11:06PM 42.4656 -73.7628 354° North 367 422 23,000  Level Boston Center
11:07PM 42.5675 -73.7792 353° North 367 422 23,000  Level Boston Center
11:08PM 42.6550 -73.7811 359° North 362 417 23,000  Level Boston Center
11:09PM 42.7417 -73.6839 39° Northeast 326 375 23,000 -300 Level Boston Center
11:10PM 42.7575 -73.5514 81° East 298 343 22,500 -1,200 Descending Boston Center
11:11PM 42.7608 -73.4156 88° East 327 376 20,600 -1,800 Descending Boston Center
11:12PM 42.7642 -73.2828 88° East 333 383 19,000 -840 Descending Boston Center
11:13PM 42.7692 -73.1669 87° East 341 392 19,000  Level Boston Center
11:14PM 42.7742 -73.0228 87° East 346 398 19,000  Level Boston Center
11:15PM 42.7808 -72.9069 85° East 346 398 19,000  Level Boston Center
11:16PM 42.7833 -72.7767 88° East 346 398 19,000  Level Boston Center
11:17PM 42.7858 -72.6467 88° East 346 398 19,000 -600 Level Boston Center
11:18PM 42.7900 -72.5164 87° East 346 398 17,800 -1,800 Descending Boston Center
11:19PM 42.7922 -72.3919 89° East 341 392 15,400 -2,100 Descending Boston Center
11:20PM 42.7983 -72.2419 87° East 314 361 13,200 -1,680 Descending Boston Center
11:21PM 42.8064 -72.1317 84° East 295 339 11,800 -1,500 Descending Boston Center
11:22PM 42.8081 -72.0211 89° East 290 334 10,300 -1,440 Descending Boston Center
11:23PM 42.8036 -71.9194 93° East 280 322 9,000 -1,320 Descending Boston Center
11:24PM 42.7989 -71.8289 94° East 248 285 7,700 -1,200 Descending Boston Center
11:25PM 42.7983 -71.7411 90° East 233 268 6,600 -1,080 Descending Boston Center
11:26PM 42.7917 -71.6678 97° East 211 243 5,600 -1,260 Descending Boston Center
11:27PM 42.7725 -71.6028 112° Southeast 188 216 4,100 -1,500 Descending Boston Center
11:28PM 42.8222 -71.5653 29° Northeast 159 183 2,600 -960 Descending Boston Center
11:29PM 42.8617 -71.5336 30° Northeast 169 194 2,200 -600 Descending Boston Center
11:30PM 42.8864 -71.4994 45° Northeast 133 153 1,500 -720 Descending Boston Center